Argonia, Kansas
Current Conditions -  °F | °C
As of 12:53 AM on Monday 22 Dec 2014 (Local Time) from KICT Reporting Station
Light Rain Light Rain  
Wind Chill: 39°   Ceiling: 300
Heat Index: 45°   Visibility: 2.5mi
Dew Point: 42°   Wind: 12mph
Humidity: 90%   Direction: 160°SSE
Pressure: 29.61"   Gusts: NA
Location:  37.27°N, 97.77°W
Report Text: KICT 220653Z 16010KT 2 1/2SM -RA BR OVC003 07/06 A2961 RMK AO2 RAE0556B24DZB02E24 SLP030 P0000 T00720056 $
Loading
Personal Weather Stations






























Interactive Weather Map New forecast layout! Learn more

10-Day Weather Forecast

Advertisements
Track Severe Weather on mobile